Time;durP1;ratioP1;P1;durP2;ratioP2;P2;SDS_P1;SDS_P2;PMS_P1;PMS_P2;Temp;Humidity;BMP_temperature;BMP_pressure;BME280_temperature;BME280_humidity;BME280_pressure;Samples;Min_cycle;Max_cycle;Signal;HPM_P1;HPM_P2
2024/02/24 00:00:56;;;;;;;1.52;0.95;;;4.70;99.90;;;;;;5060819;28;20395;-51
2024/02/24 00:03:21;;;;;;;1.70;0.63;;;4.60;99.90;;;;;;5061750;28;20441;-49
2024/02/24 00:05:47;;;;;;;4.43;0.70;;;4.50;99.90;;;;;;5058827;28;20040;-53
2024/02/24 00:08:12;;;;;;;1.38;0.73;;;4.50;99.90;;;;;;5058914;28;20043;-53
2024/02/24 00:10:38;;;;;;;1.67;0.63;;;4.40;99.90;;;;;;5061208;28;20039;-52
2024/02/24 00:13:04;;;;;;;1.38;0.75;;;4.40;99.90;;;;;;5060146;28;20352;-52
2024/02/24 00:15:29;;;;;;;2.35;0.63;;;4.40;99.90;;;;;;5043473;28;20412;-53
2024/02/24 00:17:55;;;;;;;1.67;0.60;;;4.40;99.90;;;;;;5060388;28;20032;-53
2024/02/24 00:20:21;;;;;;;0.88;0.50;;;4.40;99.90;;;;;;5055397;28;20033;-50
2024/02/24 00:22:46;;;;;;;0.45;0.45;;;4.40;99.90;;;;;;5056812;28;20039;-50
2024/02/24 00:25:12;;;;;;;1.88;0.40;;;4.40;99.90;;;;;;5057057;28;20033;-53
2024/02/24 00:27:37;;;;;;;3.97;0.57;;;4.50;99.90;;;;;;5059860;28;20118;-50
2024/02/24 00:30:03;;;;;;;0.32;0.20;;;4.50;99.90;;;;;;5060674;28;20017;-50
2024/02/24 00:32:29;;;;;;;0.98;0.68;;;4.50;99.90;;;;;;5045027;28;20032;-49
2024/02/24 00:34:54;;;;;;;3.58;0.50;;;4.50;99.90;;;;;;5061652;28;20165;-52
2024/02/24 00:37:20;;;;;;;0.32;0.32;;;4.60;99.90;;;;;;5060126;28;20052;-50
2024/02/24 00:39:45;;;;;;;0.50;0.30;;;4.70;99.90;;;;;;5060401;28;20063;-52
2024/02/24 00:42:11;;;;;;;1.30;0.45;;;4.70;99.90;;;;;;5060357;28;20410;-51
2024/02/24 00:44:36;;;;;;;0.82;0.43;;;4.80;99.90;;;;;;5058982;28;20063;-50
2024/02/24 00:47:02;;;;;;;3.92;0.22;;;4.80;99.90;;;;;;5060552;28;20024;-49
2024/02/24 00:49:29;;;;;;;1.55;0.50;;;4.80;99.90;;;;;;5060380;28;20036;-49
2024/02/24 00:51:55;;;;;;;0.43;0.28;;;4.80;99.90;;;;;;5045164;28;20044;-50
2024/02/24 00:54:20;;;;;;;0.57;0.40;;;4.80;99.90;;;;;;5059756;28;20094;-51
2024/02/24 00:56:46;;;;;;;0.80;0.22;;;4.80;99.90;;;;;;5059965;28;20037;-51
2024/02/24 00:59:12;;;;;;;3.10;0.30;;;4.90;99.90;;;;;;5059957;28;20033;-53
2024/02/24 01:01:37;;;;;;;4.55;0.30;;;4.90;99.90;;;;;;5060059;28;20037;-53
2024/02/24 01:04:03;;;;;;;0.55;0.43;;;4.90;99.90;;;;;;5044546;28;20029;-53
2024/02/24 01:06:28;;;;;;;0.88;0.50;;;4.90;99.90;;;;;;5060960;28;20036;-51
2024/02/24 01:08:54;;;;;;;0.77;0.35;;;5.00;99.90;;;;;;5061092;28;20029;-52
2024/02/24 01:11:20;;;;;;;0.28;0.20;;;4.90;99.90;;;;;;5060122;28;20548;-54
2024/02/24 01:13:45;;;;;;;4.28;0.82;;;5.00;99.90;;;;;;5060579;28;20483;-49
2024/02/24 01:16:11;;;;;;;0.52;0.30;;;5.00;99.90;;;;;;5061684;28;20032;-50
2024/02/24 01:18:37;;;;;;;0.68;0.40;;;5.00;99.90;;;;;;5061491;28;20037;-52
2024/02/24 01:21:03;;;;;;;1.25;0.82;;;4.90;99.90;;;;;;5061097;28;20120;-49
2024/02/24 01:23:28;;;;;;;1.50;0.65;;;5.00;99.90;;;;;;5061315;28;20385;-50
2024/02/24 01:25:54;;;;;;;2.67;0.43;;;4.90;99.90;;;;;;5060468;28;20151;-53
2024/02/24 01:28:20;;;;;;;2.20;0.68;;;4.90;99.90;;;;;;5060916;28;20067;-50
2024/02/24 01:30:46;;;;;;;1.83;0.73;;;4.90;99.90;;;;;;5059681;28;20059;-51
2024/02/24 01:33:12;;;;;;;0.98;0.30;;;4.90;99.90;;;;;;5060136;28;20135;-49
2024/02/24 01:35:38;;;;;;;2.47;0.93;;;4.90;99.90;;;;;;5060908;28;20155;-50
2024/02/24 01:38:05;;;;;;;4.35;0.60;;;4.90;99.90;;;;;;5062976;28;21194;-52
2024/02/24 01:40:31;;;;;;;1.23;0.55;;;4.80;99.90;;;;;;5063995;28;20178;-51
2024/02/24 01:42:57;;;;;;;3.50;0.40;;;4.80;99.90;;;;;;5063288;28;20033;-52
2024/02/24 01:45:22;;;;;;;1.85;0.55;;;4.80;99.90;;;;;;5063637;28;20024;-50
2024/02/24 01:47:50;;;;;;;2.28;0.50;;;4.80;99.90;;;;;;5063440;28;20040;-52
2024/02/24 01:50:15;;;;;;;0.90;0.50;;;4.80;99.90;;;;;;5064491;28;20046;-51
2024/02/24 01:52:45;;;;;;;1.92;0.70;;;4.80;99.90;;;;;;5048171;28;20049;-49
2024/02/24 01:55:11;;;;;;;1.33;0.70;;;4.70;99.90;;;;;;5062525;28;20169;-50
2024/02/24 01:57:42;;;;;;;0.68;0.45;;;4.70;99.90;;;;;;5062825;28;20598;-50
2024/02/24 02:00:09;;;;;;;0.88;0.60;;;4.70;99.90;;;;;;5062576;28;20032;-52
2024/02/24 02:02:37;;;;;;;1.42;0.70;;;4.70;99.90;;;;;;5062684;28;20040;-53
2024/02/24 02:05:05;;;;;;;1.42;0.50;;;4.60;99.90;;;;;;5063134;28;20036;-49
2024/02/24 02:07:30;;;;;;;1.20;0.40;;;4.60;99.90;;;;;;5063213;28;20034;-51
2024/02/24 02:09:58;;;;;;;4.28;0.88;;;4.60;99.90;;;;;;5063900;28;20029;-53
2024/02/24 02:12:24;;;;;;;1.30;0.70;;;4.60;99.90;;;;;;5064029;28;20079;-50
2024/02/24 02:14:50;;;;;;;1.23;0.60;;;4.60;99.90;;;;;;5063907;28;20040;-49
2024/02/24 02:17:17;;;;;;;1.52;0.80;;;4.60;99.90;;;;;;5062451;28;20039;-50
2024/02/24 02:19:42;;;;;;;1.73;0.60;;;4.60;99.90;;;;;;5063165;28;20068;-50
2024/02/24 02:22:11;;;;;;;1.20;0.68;;;4.70;99.90;;;;;;5062348;28;20032;-49
2024/02/24 02:24:38;;;;;;;2.17;0.90;;;4.70;99.90;;;;;;5063176;28;20029;-49
2024/02/24 02:27:06;;;;;;;2.00;0.70;;;4.60;99.90;;;;;;5063451;28;20190;-53
2024/02/24 02:29:32;;;;;;;1.40;0.57;;;4.60;99.90;;;;;;5062612;28;20039;-51
2024/02/24 02:31:58;;;;;;;0.70;0.55;;;4.50;99.90;;;;;;5061829;28;20025;-53
2024/02/24 02:34:23;;;;;;;7.90;1.25;;;4.50;99.90;;;;;;5046837;28;20051;-49
2024/02/24 02:36:49;;;;;;;5.13;0.70;;;4.50;99.90;;;;;;5061800;28;20032;-52
2024/02/24 02:39:15;;;;;;;1.70;0.68;;;4.50;99.90;;;;;;5063411;28;20028;-50
2024/02/24 02:41:40;;;;;;;1.10;0.40;;;4.50;99.90;;;;;;5060361;28;20035;-49
2024/02/24 02:44:06;;;;;;;2.05;0.82;;;4.50;99.90;;;;;;5062177;28;20039;-50
2024/02/24 02:46:31;;;;;;;2.55;0.70;;;4.50;99.90;;;;;;5061380;28;20061;-51
2024/02/24 02:48:57;;;;;;;1.25;0.70;;;4.50;99.90;;;;;;5063272;28;20029;-50
2024/02/24 02:51:23;;;;;;;2.22;0.70;;;4.50;99.90;;;;;;5062072;28;20020;-53
2024/02/24 02:53:48;;;;;;;3.00;1.17;;;4.50;99.90;;;;;;5047810;28;20045;-49
2024/02/24 02:56:16;;;;;;;1.42;0.50;;;4.60;99.90;;;;;;5062783;28;20032;-49
2024/02/24 02:58:42;;;;;;;1.75;0.50;;;4.50;99.90;;;;;;5062206;28;20066;-49
2024/02/24 03:01:11;;;;;;;6.05;1.00;;;4.60;99.90;;;;;;5061555;28;20032;-54
2024/02/24 03:03:36;;;;;;;1.55;0.75;;;4.60;99.90;;;;;;5064543;28;20047;-49
2024/02/24 03:06:02;;;;;;;1.30;0.95;;;4.60;99.90;;;;;;5069045;28;20028;-49
2024/02/24 03:08:32;;;;;;;2.63;0.70;;;4.60;99.90;;;;;;5068754;28;20036;-51
2024/02/24 03:10:58;;;;;;;1.85;0.60;;;4.50;99.90;;;;;;5069213;28;20029;-49
2024/02/24 03:13:24;;;;;;;1.80;1.02;;;4.60;99.90;;;;;;5069542;28;20032;-49
2024/02/24 03:15:49;;;;;;;0.80;0.50;;;4.50;99.90;;;;;;5068115;28;20053;-50
2024/02/24 03:18:15;;;;;;;1.00;0.70;;;4.50;99.90;;;;;;5068705;28;20024;-52
2024/02/24 03:20:40;;;;;;;1.08;0.60;;;4.50;99.90;;;;;;5068652;28;20055;-48
2024/02/24 03:23:06;;;;;;;0.75;0.38;;;4.50;99.90;;;;;;5068921;28;20078;-50
2024/02/24 03:25:32;;;;;;;0.88;0.40;;;4.40;99.90;;;;;;5068323;28;20025;-48
2024/02/24 03:27:58;;;;;;;3.08;0.80;;;4.40;99.90;;;;;;5066917;28;20039;-48
2024/02/24 03:30:23;;;;;;;0.38;0.30;;;4.40;99.90;;;;;;5066287;28;20113;-48
2024/02/24 03:32:49;;;;;;;0.75;0.55;;;4.40;99.90;;;;;;5068309;28;20049;-50
2024/02/24 03:35:14;;;;;;;1.92;0.73;;;4.40;99.90;;;;;;5068905;28;20028;-49
2024/02/24 03:37:40;;;;;;;3.38;0.60;;;4.40;99.90;;;;;;5070018;28;20055;-49
2024/02/24 03:40:06;;;;;;;0.80;0.55;;;4.30;99.90;;;;;;5067954;28;20021;-49
2024/02/24 03:42:32;;;;;;;1.08;0.60;;;4.30;99.90;;;;;;5067539;28;20025;-49
2024/02/24 03:44:57;;;;;;;2.08;0.55;;;4.30;99.90;;;;;;5067724;28;20044;-47
2024/02/24 03:47:23;;;;;;;0.88;0.40;;;4.20;99.90;;;;;;5066303;28;20048;-46
2024/02/24 03:49:48;;;;;;;1.50;0.70;;;4.20;99.90;;;;;;5068500;28;20031;-50
2024/02/24 03:52:14;;;;;;;1.10;0.45;;;4.20;99.90;;;;;;5068456;28;20021;-49
2024/02/24 03:54:39;;;;;;;1.08;0.60;;;4.20;99.90;;;;;;5052590;28;20045;-49
2024/02/24 03:57:05;;;;;;;0.93;0.57;;;4.20;99.90;;;;;;5067968;28;21239;-51
2024/02/24 03:59:30;;;;;;;1.73;0.60;;;4.10;99.90;;;;;;5067332;28;20391;-50
2024/02/24 04:01:56;;;;;;;1.55;0.65;;;4.10;99.90;;;;;;5068647;28;20367;-50
2024/02/24 04:04:21;;;;;;;1.10;0.68;;;4.10;99.90;;;;;;5068022;28;20025;-52
2024/02/24 04:06:47;;;;;;;2.10;0.60;;;4.00;99.90;;;;;;5068085;28;20554;-50
2024/02/24 04:09:13;;;;;;;1.85;0.75;;;4.00;99.90;;;;;;5067782;28;20444;-50
2024/02/24 04:11:39;;;;;;;1.02;0.70;;;4.00;99.90;;;;;;5068317;28;20023;-49
2024/02/24 04:14:04;;;;;;;2.97;0.82;;;3.90;99.90;;;;;;5068160;28;20112;-51
2024/02/24 04:16:30;;;;;;;1.55;0.73;;;3.90;99.90;;;;;;5067220;28;20527;-48
2024/02/24 04:18:55;;;;;;;4.57;0.85;;;3.90;99.90;;;;;;5067660;28;20707;-50
2024/02/24 04:21:22;;;;;;;3.65;0.55;;;3.90;99.90;;;;;;5067441;28;20479;-48
2024/02/24 04:23:48;;;;;;;3.35;0.82;;;3.90;99.90;;;;;;5068408;28;20021;-48
2024/02/24 04:26:14;;;;;;;1.60;0.80;;;3.90;99.90;;;;;;5067980;28;20043;-48
2024/02/24 04:28:41;;;;;;;1.00;0.70;;;3.90;99.90;;;;;;5068056;28;20113;-50
2024/02/24 04:31:07;;;;;;;1.35;0.90;;;3.90;99.90;;;;;;5067049;28;20530;-48
2024/02/24 04:33:32;;;;;;;1.35;0.57;;;3.80;99.90;;;;;;5068120;28;20088;-49
2024/02/24 04:35:59;;;;;;;0.73;0.50;;;3.80;99.90;;;;;;5067659;28;20020;-49
2024/02/24 04:38:24;;;;;;;1.90;0.70;;;3.80;99.90;;;;;;5067283;28;20379;-49
2024/02/24 04:40:50;;;;;;;1.85;0.80;;;3.80;99.90;;;;;;5067993;28;20113;-49
2024/02/24 04:43:15;;;;;;;1.35;0.60;;;3.80;99.90;;;;;;5066402;28;20077;-48
2024/02/24 04:45:41;;;;;;;2.95;1.30;;;3.80;99.90;;;;;;5065636;28;20025;-49
2024/02/24 04:48:06;;;;;;;1.20;0.77;;;3.80;99.90;;;;;;5066621;28;20423;-50
2024/02/24 04:50:32;;;;;;;2.40;0.77;;;3.70;99.90;;;;;;5066881;28;20055;-48
2024/02/24 04:52:57;;;;;;;3.45;1.00;;;3.70;99.90;;;;;;5053838;28;20012;-52
2024/02/24 04:55:23;;;;;;;3.33;1.13;;;3.70;99.90;;;;;;5067030;28;20078;-49
2024/02/24 04:57:49;;;;;;;1.77;0.80;;;3.70;99.90;;;;;;5066713;28;20025;-49
2024/02/24 05:00:14;;;;;;;2.15;1.00;;;3.70;99.90;;;;;;5066517;28;20227;-49
2024/02/24 05:02:40;;;;;;;1.40;0.82;;;3.70;99.90;;;;;;5067598;28;20021;-49
2024/02/24 05:05:06;;;;;;;6.55;1.75;;;3.70;99.90;;;;;;5067542;28;20107;-48
2024/02/24 05:07:31;;;;;;;2.20;1.08;;;3.70;99.90;;;;;;5066889;28;20463;-49
2024/02/24 05:09:57;;;;;;;2.13;1.08;;;3.60;99.90;;;;;;5068288;28;20033;-49
2024/02/24 05:12:23;;;;;;;4.78;1.52;;;3.60;99.90;;;;;;5070862;28;20036;-49
2024/02/24 05:14:49;;;;;;;4.10;1.35;;;3.50;99.90;;;;;;5069855;28;20107;-49
2024/02/24 05:17:15;;;;;;;2.70;1.48;;;3.50;99.90;;;;;;5070169;28;20029;-48
2024/02/24 05:19:40;;;;;;;2.15;1.42;;;3.50;99.90;;;;;;5070382;28;20479;-48
2024/02/24 05:22:06;;;;;;;3.08;1.63;;;3.40;99.90;;;;;;5071370;28;20024;-48
2024/02/24 05:24:32;;;;;;;2.13;1.30;;;3.50;99.90;;;;;;5071411;28;20371;-50
2024/02/24 05:26:58;;;;;;;3.92;1.35;;;3.50;99.90;;;;;;5070151;28;20480;-49
2024/02/24 05:29:23;;;;;;;1.25;1.15;;;3.70;99.90;;;;;;5071368;28;20048;-47
2024/02/24 05:31:49;;;;;;;3.75;1.30;;;3.80;99.90;;;;;;5052054;28;20016;-47
2024/02/24 05:34:15;;;;;;;1.70;1.20;;;3.80;99.90;;;;;;5071136;28;20028;-50
2024/02/24 05:36:40;;;;;;;1.85;1.15;;;4.00;99.90;;;;;;5070433;28;20021;-47
2024/02/24 05:39:06;;;;;;;2.40;1.30;;;4.00;99.90;;;;;;5070203;28;20035;-48
2024/02/24 05:41:33;;;;;;;3.20;1.58;;;4.00;99.90;;;;;;5070189;28;20024;-48
2024/02/24 05:43:58;;;;;;;2.50;1.30;;;4.00;99.90;;;;;;5070488;28;20028;-50
2024/02/24 05:46:24;;;;;;;1.40;1.23;;;4.00;99.90;;;;;;5070560;28;20041;-49
2024/02/24 05:48:50;;;;;;;1.65;1.10;;;4.00;99.90;;;;;;5071208;28;20566;-48
2024/02/24 05:51:20;;;;;;;2.70;1.38;;;4.00;99.90;;;;;;5070534;28;20031;-49
2024/02/24 05:53:46;;;;;;;3.75;1.48;;;4.00;99.90;;;;;;5053704;28;20069;-48
2024/02/24 05:56:11;;;;;;;4.45;1.10;;;3.90;99.90;;;;;;5064285;28;20115;-49
2024/02/24 05:58:37;;;;;;;2.95;1.10;;;3.90;99.90;;;;;;5063330;28;20609;-48
2024/02/24 06:01:03;;;;;;;2.13;1.20;;;3.90;99.90;;;;;;5062780;28;20107;-48
2024/02/24 06:03:29;;;;;;;2.20;1.15;;;3.90;99.90;;;;;;5063325;28;20505;-48
2024/02/24 06:05:54;;;;;;;0.90;0.80;;;3.90;99.90;;;;;;5062907;28;20059;-49
2024/02/24 06:08:20;;;;;;;1.75;1.02;;;3.90;99.90;;;;;;5062773;28;20488;-50
2024/02/24 06:10:47;;;;;;;9.18;1.15;;;3.90;99.90;;;;;;5063301;28;20539;-49
2024/02/24 06:13:12;;;;;;;2.58;1.17;;;3.90;99.90;;;;;;5063539;28;20374;-50
2024/02/24 06:15:38;;;;;;;2.20;0.90;;;3.90;99.90;;;;;;5063217;28;20028;-50
2024/02/24 06:18:04;;;;;;;3.42;1.40;;;4.00;99.90;;;;;;5062749;28;20043;-51
2024/02/24 06:20:30;;;;;;;1.83;1.02;;;4.00;99.90;;;;;;5063127;28;20036;-51
2024/02/24 06:22:55;;;;;;;3.97;1.35;;;4.10;99.90;;;;;;5063025;28;20382;-49
2024/02/24 06:25:22;;;;;;;2.00;1.05;;;4.10;99.90;;;;;;5062631;28;20036;-48
2024/02/24 06:27:47;;;;;;;1.58;1.02;;;4.20;99.90;;;;;;5063369;28;20483;-49
2024/02/24 06:30:13;;;;;;;2.80;1.42;;;4.20;99.90;;;;;;5062735;28;20035;-51
2024/02/24 06:32:39;;;;;;;3.67;0.90;;;4.30;99.90;;;;;;5063679;28;20040;-49
2024/02/24 06:35:05;;;;;;;2.90;1.10;;;4.30;99.90;;;;;;5063486;28;20615;-48
2024/02/24 06:37:30;;;;;;;7.95;1.00;;;4.40;99.90;;;;;;5046293;28;20025;-49
2024/02/24 06:39:56;;;;;;;1.35;0.85;;;4.50;99.90;;;;;;5062409;28;20040;-49
2024/02/24 06:42:21;;;;;;;1.95;0.98;;;4.50;99.90;;;;;;5063093;28;20035;-48
2024/02/24 06:44:47;;;;;;;3.00;0.88;;;4.50;99.90;;;;;;5062131;28;20490;-52
2024/02/24 06:47:13;;;;;;;1.17;0.70;;;4.60;99.90;;;;;;5062611;28;20037;-48
2024/02/24 06:49:39;;;;;;;2.05;1.08;;;4.60;99.90;;;;;;5062612;28;20508;-55
2024/02/24 06:52:05;;;;;;;0.90;0.68;;;4.70;99.90;;;;;;5062020;28;20132;-50
2024/02/24 06:54:31;;;;;;;2.58;1.17;;;4.70;99.90;;;;;;5047366;28;20040;-51
2024/02/24 06:56:57;;;;;;;3.72;0.85;;;4.70;99.90;;;;;;5063336;28;20024;-48
2024/02/24 06:59:22;;;;;;;1.77;0.90;;;4.70;99.90;;;;;;5061499;28;20059;-50
2024/02/24 07:01:48;;;;;;;2.38;0.85;;;4.80;99.90;;;;;;5061965;28;20037;-47
2024/02/24 07:04:14;;;;;;;2.67;1.20;;;4.80;99.90;;;;;;5062692;28;20123;-47
2024/02/24 07:06:41;;;;;;;2.65;0.73;;;4.80;99.90;;;;;;5063777;28;20036;-47
2024/02/24 07:09:07;;;;;;;0.77;0.40;;;4.90;99.90;;;;;;5061526;28;20040;-48
2024/02/24 07:11:33;;;;;;;0.80;0.70;;;4.90;99.90;;;;;;5061362;28;20043;-51
2024/02/24 07:13:58;;;;;;;2.85;0.77;;;5.00;99.90;;;;;;5061200;28;20028;-51
2024/02/24 07:16:24;;;;;;;2.92;0.90;;;5.00;99.90;;;;;;5062219;28;20021;-49
2024/02/24 07:18:50;;;;;;;7.18;1.02;;;5.00;99.90;;;;;;5062336;28;20033;-49
2024/02/24 07:21:15;;;;;;;3.55;0.70;;;5.00;99.90;;;;;;5060918;28;20029;-50
2024/02/24 07:23:41;;;;;;;1.13;0.63;;;5.00;99.90;;;;;;5062114;28;20648;-51
2024/02/24 07:26:06;;;;;;;1.45;0.85;;;5.10;99.90;;;;;;5062513;28;20175;-51
2024/02/24 07:28:32;;;;;;;4.25;0.93;;;5.10;99.90;;;;;;5061979;28;20071;-49
2024/02/24 07:30:58;;;;;;;3.58;0.85;;;5.10;99.90;;;;;;5061798;28;20031;-50
2024/02/24 07:33:23;;;;;;;6.32;0.90;;;5.20;99.90;;;;;;5062227;28;20426;-50
2024/02/24 07:35:49;;;;;;;1.20;0.70;;;5.20;99.90;;;;;;5061636;28;20035;-49
2024/02/24 07:38:14;;;;;;;2.00;0.80;;;5.20;99.90;;;;;;5061973;28;20391;-48
2024/02/24 07:40:41;;;;;;;1.35;0.70;;;5.20;99.90;;;;;;5061684;28;20035;-51
2024/02/24 07:43:07;;;;;;;1.10;0.63;;;5.20;99.90;;;;;;5062058;28;20024;-47
2024/02/24 07:45:33;;;;;;;5.80;0.80;;;5.20;99.90;;;;;;5061209;28;21188;-49
2024/02/24 07:47:58;;;;;;;1.10;0.63;;;5.20;99.90;;;;;;5061483;28;20040;-50
2024/02/24 07:50:24;;;;;;;4.93;0.88;;;5.20;99.90;;;;;;5061149;28;20032;-48
2024/02/24 07:52:49;;;;;;;6.65;0.98;;;5.20;99.90;;;;;;5061880;28;20036;-50
2024/02/24 07:55:15;;;;;;;1.75;0.93;;;5.20;99.90;;;;;;5062039;28;20036;-48
2024/02/24 07:57:41;;;;;;;8.32;1.05;;;5.20;99.90;;;;;;5050597;28;20116;-52
2024/02/24 08:00:09;;;;;;;2.00;1.08;;;5.30;99.90;;;;;;5061081;28;20032;-47
2024/02/24 08:02:36;;;;;;;3.45;1.02;;;5.40;99.90;;;;;;5061178;28;20056;-47
2024/02/24 08:05:02;;;;;;;5.38;0.93;;;5.40;99.90;;;;;;5060639;28;20040;-48
2024/02/24 08:07:28;;;;;;;2.20;0.60;;;5.40;99.90;;;;;;5061379;28;20017;-50
2024/02/24 08:09:54;;;;;;;8.95;1.00;;;5.40;99.90;;;;;;5061175;28;20036;-47
2024/02/24 08:12:20;;;;;;;2.00;0.98;;;5.40;99.90;;;;;;5060936;28;20482;-48
2024/02/24 08:14:46;;;;;;;3.45;0.85;;;5.50;99.90;;;;;;5060942;28;20027;-48
2024/02/24 08:17:11;;;;;;;4.40;0.88;;;5.50;99.90;;;;;;5061504;28;20028;-47
2024/02/24 08:19:37;;;;;;;1.27;0.70;;;5.60;99.90;;;;;;5059848;28;20032;-47
2024/02/24 08:22:03;;;;;;;3.00;0.80;;;5.60;99.90;;;;;;5061129;28;20060;-47
2024/02/24 08:24:29;;;;;;;2.03;0.90;;;5.50;99.90;;;;;;5062124;28;20036;-48
2024/02/24 08:26:54;;;;;;;4.85;0.63;;;5.50;99.90;;;;;;5061309;28;20047;-47
2024/02/24 08:29:20;;;;;;;0.65;0.60;;;5.50;99.90;;;;;;5061381;28;20025;-48
2024/02/24 08:31:45;;;;;;;4.68;0.80;;;5.60;99.90;;;;;;5061738;28;20071;-48
2024/02/24 08:34:11;;;;;;;2.35;1.00;;;5.60;99.90;;;;;;5060668;28;20039;-47
2024/02/24 08:36:37;;;;;;;2.40;0.93;;;5.50;99.90;;;;;;5061575;28;20518;-47
2024/02/24 08:39:02;;;;;;;1.55;0.77;;;5.60;99.90;;;;;;5061364;28;20036;-47
2024/02/24 08:41:31;;;;;;;0.82;0.70;;;5.60;99.90;;;;;;5060852;28;20031;-48
2024/02/24 08:43:57;;;;;;;1.30;0.52;;;5.60;99.90;;;;;;5058763;28;20033;-48
2024/02/24 08:46:23;;;;;;;2.65;0.88;;;5.70;99.90;;;;;;5063669;28;20472;-49
2024/02/24 08:48:48;;;;;;;1.25;0.68;;;5.80;99.90;;;;;;5065274;28;20024;-48
2024/02/24 08:51:14;;;;;;;1.13;0.52;;;5.80;99.90;;;;;;5064071;28;20678;-48
2024/02/24 08:53:39;;;;;;;0.65;0.50;;;5.80;99.90;;;;;;5065033;28;20111;-47
2024/02/24 08:56:05;;;;;;;2.42;1.10;;;5.90;99.90;;;;;;5054507;28;20047;-49
2024/02/24 08:58:31;;;;;;;2.10;1.10;;;6.10;99.90;;;;;;5065204;28;20040;-48
2024/02/24 09:00:58;;;;;;;0.98;0.52;;;6.20;99.90;;;;;;5065077;28;20529;-47
2024/02/24 09:03:23;;;;;;;1.10;0.40;;;6.30;99.90;;;;;;5065157;28;20062;-49
2024/02/24 09:05:49;;;;;;;2.35;0.68;;;6.50;99.90;;;;;;5064462;28;20024;-49
2024/02/24 09:08:15;;;;;;;1.85;0.98;;;6.50;99.90;;;;;;5064137;28;20035;-50
2024/02/24 09:10:40;;;;;;;2.03;1.00;;;6.60;99.90;;;;;;5064175;28;20043;-47
2024/02/24 09:13:08;;;;;;;24.00;10.65;;;6.60;99.90;;;;;;5064405;28;20534;-47
2024/02/24 09:15:33;;;;;;;128.05;35.58;;;6.60;99.90;;;;;;5063529;28;20025;-49
2024/02/24 09:17:59;;;;;;;150.02;46.70;;;6.50;99.90;;;;;;5063756;28;20104;-49
2024/02/24 09:20:26;;;;;;;303.80;90.88;;;6.40;99.90;;;;;;5063876;28;20029;-48
2024/02/24 09:22:51;;;;;;;156.98;49.50;;;6.30;99.90;;;;;;5062155;28;20379;-47
2024/02/24 09:25:17;;;;;;;51.63;17.58;;;6.20;99.90;;;;;;5064621;28;20048;-51
2024/02/24 09:27:43;;;;;;;68.03;21.98;;;6.10;99.90;;;;;;5064879;28;20052;-47
2024/02/24 09:30:11;;;;;;;189.40;60.83;;;6.00;99.90;;;;;;5064229;28;20024;-47
2024/02/24 09:32:38;;;;;;;73.68;21.38;;;6.00;99.90;;;;;;5064929;28;20082;-48
2024/02/24 09:35:10;;;;;;;24.88;8.00;;;6.10;99.90;;;;;;5062695;28;20094;-49
2024/02/24 09:37:36;;;;;;;33.70;11.25;;;6.10;99.90;;;;;;5061753;28;20435;-49
2024/02/24 09:40:05;;;;;;;92.35;30.63;;;6.10;99.90;;;;;;5062712;28;20123;-47
2024/02/24 09:42:30;;;;;;;87.07;29.23;;;6.20;99.90;;;;;;5061366;28;20040;-47
2024/02/24 09:44:59;;;;;;;69.35;26.10;;;6.40;99.90;;;;;;5062659;28;20029;-49
2024/02/24 09:47:26;;;;;;;36.10;17.05;;;6.70;99.90;;;;;;5064310;28;20115;-50
2024/02/24 09:49:53;;;;;;;44.67;17.08;;;6.80;99.90;;;;;;5064375;28;20064;-50
2024/02/24 09:52:18;;;;;;;33.97;15.13;;;6.90;99.90;;;;;;5061649;28;20547;-52
2024/02/24 09:54:44;;;;;;;64.53;19.88;;;7.00;99.90;;;;;;5063482;28;20123;-52
2024/02/24 09:57:15;;;;;;;73.57;22.75;;;7.20;99.90;;;;;;5045776;28;21127;-48
2024/02/24 09:59:43;;;;;;;42.67;14.38;;;7.20;99.90;;;;;;5062801;28;20078;-47
2024/02/24 10:02:09;;;;;;;45.25;14.50;;;7.30;99.90;;;;;;5062455;28;20128;-50
2024/02/24 10:04:34;;;;;;;26.65;10.25;;;7.30;99.90;;;;;;5064025;28;20103;-52
2024/02/24 10:07:00;;;;;;;2.17;1.08;;;7.60;99.90;;;;;;5063699;28;20052;-48
2024/02/24 10:09:25;;;;;;;2.20;0.75;;;7.80;99.90;;;;;;5064145;28;20338;-49
2024/02/24 10:11:51;;;;;;;6.20;3.05;;;7.90;99.90;;;;;;5062572;28;20094;-48
2024/02/24 10:14:17;;;;;;;2.42;1.55;;;7.90;99.90;;;;;;5063584;28;20046;-49
2024/02/24 10:16:43;;;;;;;6.03;2.33;;;7.80;99.90;;;;;;5063073;28;20025;-50
2024/02/24 10:19:08;;;;;;;3.08;1.17;;;7.70;99.90;;;;;;5061000;28;20036;-48
2024/02/24 10:21:34;;;;;;;5.18;1.70;;;7.60;99.90;;;;;;5062730;28;20032;-49
2024/02/24 10:24:00;;;;;;;1.98;1.02;;;7.40;99.90;;;;;;5062931;28;20410;-52
2024/02/24 10:26:27;;;;;;;0.68;0.25;;;7.10;99.90;;;;;;5062626;28;20103;-47
2024/02/24 10:28:55;;;;;;;10.68;4.88;;;6.90;99.90;;;;;;5062078;28;21097;-48
2024/02/24 10:31:26;;;;;;;4.50;1.95;;;6.90;99.90;;;;;;5061907;28;20059;-50
2024/02/24 10:33:54;;;;;;;2.53;1.10;;;7.00;99.90;;;;;;5062874;28;20111;-48
2024/02/24 10:36:21;;;;;;;1.83;1.35;;;7.00;99.90;;;;;;5063045;28;20033;-48
2024/02/24 10:38:51;;;;;;;6.25;3.38;;;7.20;99.90;;;;;;5062655;28;20152;-48
2024/02/24 10:41:18;;;;;;;5.60;2.72;;;7.20;99.90;;;;;;5061084;28;20510;-49
2024/02/24 10:43:45;;;;;;;5.85;2.20;;;7.30;99.90;;;;;;5062316;28;20036;-50
2024/02/24 10:46:10;;;;;;;11.82;5.32;;;7.40;99.90;;;;;;5062377;28;20036;-47
2024/02/24 10:48:36;;;;;;;4.55;2.08;;;7.60;99.90;;;;;;5063364;28;20107;-48
2024/02/24 10:51:02;;;;;;;19.65;6.97;;;7.70;99.90;;;;;;5061414;28;20142;-49
2024/02/24 10:53:31;;;;;;;8.25;3.03;;;8.10;99.90;;;;;;5062787;28;20048;-49
2024/02/24 10:55:58;;;;;;;1.88;0.90;;;8.30;99.90;;;;;;5062862;28;20505;-48
2024/02/24 10:58:24;;;;;;;1.40;0.75;;;8.60;99.90;;;;;;5046037;28;20064;-47
2024/02/24 11:00:53;;;;;;;2.17;1.13;;;8.60;99.90;;;;;;5060640;28;20032;-48
2024/02/24 11:03:22;;;;;;;2.53;1.10;;;8.60;99.90;;;;;;5062136;28;20033;-50
2024/02/24 11:05:50;;;;;;;0.88;0.60;;;8.50;99.90;;;;;;5062338;28;20039;-51
2024/02/24 11:08:35;;;;;;;0.93;0.43;;;8.60;99.90;;;;;;5060450;28;20040;-49
2024/02/24 11:11:07;;;;;;;1.33;0.88;;;8.80;99.90;;;;;;5061939;28;20403;-49
2024/02/24 11:13:33;;;;;;;9.10;3.88;;;8.80;99.90;;;;;;5061860;28;20371;-50
2024/02/24 11:15:59;;;;;;;13.05;5.70;;;8.60;99.90;;;;;;5061648;28;20024;-49
2024/02/24 11:18:47;;;;;;;2.95;1.85;;;8.50;99.90;;;;;;5061883;28;20441;-49
2024/02/24 11:21:12;;;;;;;2.10;0.70;;;8.30;99.90;;;;;;5061755;28;20028;-51
2024/02/24 11:23:42;;;;;;;2.50;1.10;;;8.20;99.90;;;;;;5062926;28;20037;-48
2024/02/24 11:26:12;;;;;;;1.02;0.88;;;8.20;99.90;;;;;;5060772;28;20067;-51
2024/02/24 11:28:39;;;;;;;0.40;0.40;;;8.10;99.90;;;;;;5060603;28;20063;-49
2024/02/24 11:31:05;;;;;;;2.92;0.35;;;8.10;99.90;;;;;;5061790;28;20044;-51
2024/02/24 11:33:35;;;;;;;0.30;0.22;;;8.20;99.90;;;;;;5062319;28;20522;-48
2024/02/24 11:36:02;;;;;;;0.40;0.40;;;8.30;99.90;;;;;;5062333;28;20074;-50
2024/02/24 11:38:28;;;;;;;0.70;0.40;;;8.40;99.90;;;;;;5061853;28;20044;-48
2024/02/24 11:40:54;;;;;;;1.65;0.75;;;8.40;99.90;;;;;;5060755;28;20689;-47
2024/02/24 11:43:20;;;;;;;2.05;1.00;;;8.30;99.90;;;;;;5061903;28;20032;-47
2024/02/24 11:45:51;;;;;;;4.43;2.08;;;8.30;99.90;;;;;;5061308;28;20025;-48
2024/02/24 11:48:17;;;;;;;17.63;6.35;;;8.30;99.90;;;;;;5061073;28;20035;-50
2024/02/24 11:50:43;;;;;;;11.57;5.20;;;8.10;99.90;;;;;;5059764;28;20032;-48
2024/02/24 11:53:10;;;;;;;16.35;7.00;;;8.10;99.90;;;;;;5061008;28;20028;-47
2024/02/24 11:55:36;;;;;;;19.05;7.68;;;8.10;99.90;;;;;;5059973;28;20036;-49
2024/02/24 11:58:07;;;;;;;18.85;4.25;;;8.20;99.90;;;;;;5041622;28;20053;-49
2024/02/24 12:00:40;;;;;;;25.58;9.60;;;8.30;99.90;;;;;;5058776;28;20033;-49
2024/02/24 12:03:13;;;;;;;5.25;2.45;;;8.40;99.90;;;;;;5060522;28;20530;-50
2024/02/24 12:05:39;;;;;;;1.15;0.52;;;8.60;99.90;;;;;;5065200;28;20021;-48
2024/02/24 12:08:08;;;;;;;7.50;3.20;;;8.70;99.90;;;;;;5068077;28;21263;-51
2024/02/24 12:10:38;;;;;;;3.53;1.40;;;8.70;99.90;;;;;;5067396;28;20066;-49
2024/02/24 12:13:12;;;;;;;6.95;2.97;;;8.70;99.90;;;;;;5067833;28;20044;-49
2024/02/24 12:15:39;;;;;;;2.83;0.75;;;8.60;99.90;;;;;;5049916;28;20502;-47
2024/02/24 12:18:05;;;;;;;1.15;0.75;;;8.40;99.90;;;;;;5067400;28;20024;-49
2024/02/24 12:20:33;;;;;;;3.08;1.20;;;8.40;99.90;;;;;;5066652;28;20033;-53
2024/02/24 12:23:06;;;;;;;1.98;0.30;;;8.20;99.90;;;;;;5067406;28;20040;-50
2024/02/24 12:25:32;;;;;;;1.15;0.50;;;8.20;99.90;;;;;;5067745;28;20379;-49
2024/02/24 12:27:59;;;;;;;0.85;0.55;;;8.20;99.90;;;;;;5067391;28;20487;-49
2024/02/24 12:30:26;;;;;;;0.75;0.32;;;8.40;99.90;;;;;;5066650;28;20031;-48
2024/02/24 12:32:52;;;;;;;1.20;0.32;;;8.40;99.90;;;;;;5070442;28;20069;-52
2024/02/24 12:35:22;;;;;;;1.80;0.68;;;8.50;99.90;;;;;;5071236;28;20100;-48
2024/02/24 12:37:51;;;;;;;1.95;0.50;;;8.50;99.90;;;;;;5068886;28;20021;-48
2024/02/24 12:40:30;;;;;;;1.17;0.65;;;8.70;99.90;;;;;;5069096;28;20033;-56
2024/02/24 12:42:57;;;;;;;2.72;0.85;;;8.70;99.90;;;;;;5067386;28;20029;-52
2024/02/24 12:45:23;;;;;;;0.43;0.38;;;8.60;99.90;;;;;;5066700;28;20035;-49
2024/02/24 12:47:49;;;;;;;1.35;0.55;;;8.40;99.90;;;;;;5066121;28;20109;-50
2024/02/24 12:50:23;;;;;;;1.60;0.30;;;8.20;99.90;;;;;;5066810;28;20031;-51